Main page
Satellite images 15-day forecastsClimateMarine weather Cyclones Lightning AirportsFAQ Newsletter About
Weather : Europe Africa North America South America Asia Australia-Oceania Others
Languages Contact

Waddington, England

RAF

latitude: 53-10N, longitude: 000-31W, elevation: 68 m


METAR: EGXW 251750Z 21012KT 9999 FEW025 BKN040 12/10 Q1016 BLU
TAF: missing

Time: 19:55 (18:55 UTC)

Current weather observation

The report was made 1 hour and 5 minutes ago, at 17:50 UTC
Wind 12 kt from the South/Southwest
Temperature 12°C
Humidity 88%
Pressure 1016 hPa
Visibility 10 km or more
Few clouds at a height of 2500 ft
Broken clouds at a height of 4000 ft

Change units
The information on this site is subject to a disclaimer
Weather : Europe Africa North America South America Asia Australia-Oceania Others
Satellite images 15-day forecastsClimateMarine weather Cyclones Lightning AirportsFAQ Languages Contact Newsletter About